ADDS METAR Data INFO
IDs: Format: Raw Decoded Include TAF

Data at: 1858 UTC 22 Sep 2017

METAR for:KSAT (San Antonio Intl, TX, US)
Text:KSAT 221851Z 14009G17KT 10SM BKN040 BKN080 BKN250 32/21 A2993 RMK AO2 SLP116 T03220211
Temperature: 32.2°C ( 90°F)
Dewpoint: 21.1°C ( 70°F) [RH = 52%]
Pressure (altimeter):29.93 inches Hg (1013.6 mb) [Sea level pressure: 1011.6 mb]
Winds:from the SE (140 degrees) at 10 MPH (9 knots; 4.6 m/s) gusting to 20 MPH (17 knots; 8.7 m/s)
Visibility:10 or more sm (16+ km)
Ceiling:4000 feet AGL
Clouds: broken clouds at 4000 feet AGL, broken clouds at 8000 feet AGL, broken clouds at 25000 feet AGL